CheckWX is a tool to help pilots better visualize weather data.  It is not intended as a substitute for an official pre-flight weather briefing.

03:43:34 UTC

EGAC METAR
George Best Belfast City Airport
Belfast, United Kingdom
Current

24 mins ago

EGAC 220320Z AUTO 21016G26KT 9999 BKN015/// OVC024/// 19/17 Q1009
Observed
Jul-22 @ 03:20 UTC
Wind
  • 210° at 16 KTS
  • Gusting to 26 KTS
Visibility
10,000+ meters
Flight Rules
MVFR
Cloud Levels
  • Broken at 1,500' AGL
  • Overcast at 2,400' AGL
Temperature
19°C / 66°F
Dewpoint
17°C / 63°F
Humidity
88%
Altimeter
29.79" Hg
Pressure
1008.92 hPa
Previous

54 mins ago

EGAC 220250Z AUTO 21015G26KT 9999 BKN014/// OVC021/// 19/18 Q1009
Observed
Jul-22 @ 02:50 UTC
Wind
  • 210° at 15 KTS
  • Gusting to 26 KTS
Visibility
10,000+ meters
Flight Rules
MVFR
Cloud Levels
  • Broken at 1,400' AGL
  • Overcast at 2,100' AGL
Temperature
19°C / 66°F
Dewpoint
18°C / 64°F
Humidity
94%
Altimeter
29.79" Hg
Pressure
1008.92 hPa
Previous

1 hour ago

EGAC 220220Z AUTO 21015KT 9999 -RA BKN014/// OVC023/// 19/18 Q1008
Observed
Jul-22 @ 02:20 UTC
Wind
  • 210° at 15 KTS
Visibility
10,000+ meters
Flight Rules
MVFR
Conditions
Light Rain
Cloud Levels
  • Broken at 1,400' AGL
  • Overcast at 2,300' AGL
Temperature
19°C / 66°F
Dewpoint
18°C / 64°F
Humidity
94%
Altimeter
29.76" Hg
Pressure
1007.92 hPa